createdAt,value
2018-08-30T00:00:00.367Z,65.00
2018-08-30T00:02:12.580Z,64.71
2018-08-30T00:04:24.811Z,65.43
2018-08-30T00:06:37.027Z,65.57
2018-08-30T00:08:49.235Z,65.32
2018-08-30T00:11:01.437Z,64.80
2018-08-30T00:13:13.659Z,65.05
2018-08-30T00:15:25.829Z,65.03
2018-08-30T00:17:38.052Z,65.66
2018-08-30T00:19:50.239Z,66.13
2018-08-30T00:22:02.458Z,65.65
2018-08-30T00:24:14.639Z,65.56
2018-08-30T00:26:26.875Z,66.41
2018-08-30T00:28:39.068Z,66.68
2018-08-30T00:30:51.272Z,66.70
2018-08-30T00:33:03.536Z,66.33
2018-08-30T00:35:15.714Z,66.20
2018-08-30T00:37:27.911Z,66.25
2018-08-30T00:39:40.130Z,67.16
2018-08-30T00:41:52.313Z,66.63
2018-08-30T00:44:04.522Z,66.87
2018-08-30T00:46:16.739Z,66.73
2018-08-30T00:48:28.941Z,66.45
2018-08-30T00:50:41.123Z,67.57
2018-08-30T00:52:53.295Z,67.63
2018-08-30T00:55:05.502Z,67.74
2018-08-30T00:57:18.102Z,67.64
2018-08-30T00:59:30.301Z,67.55
2018-08-30T01:01:42.495Z,68.15
2018-08-30T01:03:54.726Z,67.82
2018-08-30T01:06:06.975Z,67.44
2018-08-30T01:08:19.163Z,66.91
2018-08-30T01:10:31.370Z,66.39
2018-08-30T01:12:49.103Z,67.03
2018-08-30T01:15:01.322Z,66.05
2018-08-30T01:17:13.521Z,65.93
2018-08-30T01:19:25.839Z,66.56
2018-08-30T01:21:38.028Z,66.34
2018-08-30T01:23:50.227Z,66.76
2018-08-30T01:26:02.482Z,66.51
2018-08-30T01:28:14.646Z,66.86
2018-08-30T01:30:26.839Z,67.54
2018-08-30T01:32:39.024Z,67.47
2018-08-30T01:34:51.204Z,66.27
2018-08-30T01:37:03.411Z,67.12
2018-08-30T01:39:15.554Z,66.26
2018-08-30T01:41:27.751Z,66.85
2018-08-30T01:43:39.957Z,67.19
2018-08-30T01:45:52.163Z,67.27
2018-08-30T01:48:04.388Z,66.77
2018-08-30T01:50:16.557Z,66.91
2018-08-30T01:52:28.796Z,66.68
2018-08-30T01:54:41.133Z,66.33
2018-08-30T01:56:53.286Z,66.61
2018-08-30T01:59:05.497Z,67.15
2018-08-30T02:01:17.727Z,67.29
2018-08-30T02:03:29.932Z,67.38
2018-08-30T02:05:42.122Z,66.39
2018-08-30T02:07:54.358Z,66.31
2018-08-30T02:10:06.619Z,66.00
2018-08-30T02:12:18.822Z,66.02
2018-08-30T02:14:31.011Z,66.09
2018-08-30T02:16:43.191Z,66.75
2018-08-30T02:18:55.417Z,65.86
2018-08-30T02:21:07.616Z,65.73
2018-08-30T02:23:19.801Z,65.44
2018-08-30T02:25:32.007Z,65.54
2018-08-30T02:27:44.230Z,65.30
2018-08-30T02:29:56.430Z,65.64
2018-08-30T02:32:08.666Z,65.08
2018-08-30T02:34:20.871Z,64.95
2018-08-30T02:36:33.065Z,65.63
2018-08-30T02:38:45.264Z,65.42
2018-08-30T02:40:57.478Z,64.95
2018-08-30T02:43:09.666Z,64.79
2018-08-30T02:45:21.882Z,65.43
2018-08-30T02:47:34.065Z,65.81
2018-08-30T02:49:46.258Z,65.64
2018-08-30T02:51:58.464Z,65.13
2018-08-30T02:54:10.683Z,66.06
2018-08-30T02:56:22.867Z,66.62
2018-08-30T02:58:35.045Z,65.85
2018-08-30T03:00:47.288Z,66.84
2018-08-30T03:02:59.437Z,66.88
2018-08-30T03:05:11.788Z,66.17
2018-08-30T03:07:23.962Z,67.26
2018-08-30T03:09:36.203Z,66.32
2018-08-30T03:11:48.401Z,66.54
2018-08-30T03:14:00.631Z,67.29
2018-08-30T03:16:12.817Z,66.37
2018-08-30T03:18:25.030Z,67.49
2018-08-30T03:20:37.201Z,67.59
2018-08-30T03:22:49.414Z,66.98
2018-08-30T03:25:01.923Z,67.97
2018-08-30T03:27:14.107Z,68.17
2018-08-30T03:29:26.287Z,67.38
2018-08-30T03:31:38.490Z,68.39
2018-08-30T03:33:50.664Z,68.11
2018-08-30T03:36:02.830Z,68.01
2018-08-30T03:38:15.129Z,67.47
2018-08-30T03:40:27.274Z,67.50
2018-08-30T03:42:39.495Z,67.49
2018-08-30T03:44:51.677Z,68.39
2018-08-30T03:47:03.980Z,68.65
2018-08-30T03:49:16.134Z,67.99
2018-08-30T03:51:28.322Z,68.57
2018-08-30T03:53:40.502Z,68.31
2018-08-30T03:55:52.692Z,68.36
2018-08-30T03:58:04.963Z,68.53
2018-08-30T04:00:17.168Z,68.59
2018-08-30T04:02:29.357Z,68.55
2018-08-30T04:04:41.649Z,68.47
2018-08-30T04:06:53.830Z,68.54
2018-08-30T04:09:07.155Z,68.96
2018-08-30T04:11:19.327Z,68.73
2018-08-30T04:13:31.571Z,69.63
2018-08-30T04:15:43.760Z,68.81
2018-08-30T04:17:55.991Z,69.78
2018-08-30T04:20:08.188Z,69.03
2018-08-30T04:22:20.378Z,69.90
2018-08-30T04:24:32.575Z,69.38
2018-08-30T04:26:44.783Z,68.89
2018-08-30T04:28:56.955Z,69.86
2018-08-30T04:31:09.176Z,69.12
2018-08-30T04:33:21.331Z,69.04
2018-08-30T04:35:33.583Z,68.45
2018-08-30T04:37:45.795Z,69.83
2018-08-30T04:39:57.996Z,69.77
2018-08-30T04:42:10.215Z,69.00
2018-08-30T04:44:22.418Z,68.88
2018-08-30T04:46:34.646Z,69.62
2018-08-30T04:48:46.910Z,69.37
2018-08-30T04:50:59.207Z,69.58
2018-08-30T04:53:11.428Z,68.47
2018-08-30T04:55:23.611Z,69.37
2018-08-30T04:57:35.795Z,68.85
2018-08-30T04:59:47.982Z,69.39
2018-08-30T05:02:00.228Z,68.98
2018-08-30T05:04:12.520Z,68.56
2018-08-30T05:06:24.678Z,68.67
2018-08-30T05:08:36.969Z,68.12
2018-08-30T05:10:49.238Z,68.02
2018-08-30T05:13:01.446Z,68.70
2018-08-30T05:15:13.643Z,68.18
2018-08-30T05:17:25.851Z,67.18
2018-08-30T05:19:38.064Z,67.22
2018-08-30T05:21:50.276Z,67.70
2018-08-30T05:24:02.518Z,67.00
2018-08-30T05:26:14.728Z,67.61
2018-08-30T05:28:26.959Z,67.62
2018-08-30T05:30:39.180Z,67.54
2018-08-30T05:32:51.407Z,66.95
2018-08-30T05:35:03.639Z,67.74
2018-08-30T05:37:15.849Z,67.93
2018-08-30T05:39:28.042Z,67.59
2018-08-30T05:41:40.254Z,66.74
2018-08-30T05:43:52.471Z,66.99
2018-08-30T05:46:04.649Z,67.05
2018-08-30T05:48:16.863Z,67.33
2018-08-30T05:50:29.056Z,68.34
2018-08-30T05:52:41.260Z,67.79
2018-08-30T05:54:53.452Z,69.41
2018-08-30T05:57:05.648Z,71.13
2018-08-30T05:59:17.870Z,71.48
2018-08-30T06:01:30.117Z,72.54
2018-08-30T06:03:42.341Z,73.21
2018-08-30T06:05:54.523Z,74.71
2018-08-30T06:08:06.794Z,74.87
2018-08-30T06:10:18.965Z,74.79
2018-08-30T06:12:31.238Z,74.18
2018-08-30T06:14:43.439Z,74.26
2018-08-30T06:16:55.666Z,74.47
2018-08-30T06:19:08.002Z,74.53
2018-08-30T06:21:20.192Z,74.71
2018-08-30T06:23:32.371Z,74.74
2018-08-30T06:25:44.602Z,75.40
2018-08-30T06:27:56.816Z,75.61
2018-08-30T06:30:09.010Z,75.55
2018-08-30T06:32:21.322Z,74.81
2018-08-30T06:34:33.516Z,74.46
2018-08-30T06:36:45.946Z,75.10
2018-08-30T06:38:58.136Z,75.21
2018-08-30T06:41:10.383Z,74.84
2018-08-30T06:43:22.574Z,74.55
2018-08-30T06:45:34.878Z,75.38
2018-08-30T06:47:46.999Z,75.66
2018-08-30T06:49:59.201Z,75.23
2018-08-30T06:52:11.402Z,76.52
2018-08-30T06:54:23.585Z,77.63
2018-08-30T06:56:35.767Z,76.72
2018-08-30T06:58:48.011Z,77.28
2018-08-30T07:01:00.175Z,77.42
2018-08-30T07:03:12.362Z,77.67
2018-08-30T07:05:24.614Z,79.08
2018-08-30T07:07:36.814Z,78.53
2018-08-30T07:09:49.091Z,77.78
2018-08-30T07:12:01.315Z,77.74
2018-08-30T07:14:13.531Z,77.12
2018-08-30T07:16:25.726Z,77.34
2018-08-30T07:18:37.998Z,77.21
2018-08-30T07:20:50.178Z,77.04
2018-08-30T07:23:02.561Z,76.88
2018-08-30T07:25:14.763Z,76.03
2018-08-30T07:27:26.943Z,76.68
2018-08-30T07:29:39.156Z,76.26
2018-08-30T07:31:51.350Z,76.02
2018-08-30T07:34:03.601Z,75.61
2018-08-30T07:36:15.787Z,74.93
2018-08-30T07:38:28.019Z,75.18
2018-08-30T07:40:40.265Z,75.10
2018-08-30T07:42:52.459Z,76.29
2018-08-30T07:45:04.727Z,74.81
2018-08-30T07:47:16.924Z,74.04
2018-08-30T07:49:29.097Z,73.63
2018-08-30T07:51:41.328Z,73.88
2018-08-30T07:53:53.462Z,75.11
2018-08-30T07:56:05.975Z,74.97
2018-08-30T07:58:18.250Z,72.85
2018-08-30T08:00:30.569Z,73.92
2018-08-30T08:02:42.843Z,70.97
2018-08-30T08:04:55.090Z,69.81
2018-08-30T08:07:07.337Z,68.79
2018-08-30T08:09:19.555Z,69.86
2018-08-30T08:11:31.760Z,69.85
2018-08-30T08:13:43.954Z,70.28
2018-08-30T08:15:56.230Z,69.09
2018-08-30T08:18:08.518Z,68.67
2018-08-30T08:20:20.706Z,68.65
2018-08-30T08:22:32.963Z,68.67
2018-08-30T08:24:45.273Z,68.34
2018-08-30T08:26:57.467Z,67.19
2018-08-30T08:29:09.670Z,67.22
2018-08-30T08:31:21.915Z,67.27
2018-08-30T08:33:34.183Z,65.22
2018-08-30T08:35:46.413Z,67.54
2018-08-30T08:37:58.623Z,67.39
2018-08-30T08:40:10.954Z,67.25
2018-08-30T08:42:23.139Z,67.19
2018-08-30T08:44:35.381Z,68.68
2018-08-30T08:46:47.610Z,67.86
2018-08-30T08:48:59.867Z,67.92
2018-08-30T08:51:12.167Z,67.81
2018-08-30T08:53:24.386Z,66.99
2018-08-30T08:55:36.636Z,66.92
2018-08-30T08:57:48.838Z,67.03
2018-08-30T09:00:01.083Z,66.92
2018-08-30T09:02:13.298Z,67.09
2018-08-30T09:04:25.530Z,66.12
2018-08-30T09:06:37.803Z,66.59
2018-08-30T09:08:49.994Z,65.60
2018-08-30T09:11:02.231Z,64.90
2018-08-30T09:13:14.439Z,64.49
2018-08-30T09:15:26.722Z,64.78
2018-08-30T09:17:38.943Z,63.78
2018-08-30T09:19:51.203Z,62.80
2018-08-30T09:22:03.470Z,62.71
2018-08-30T09:24:15.671Z,62.22
2018-08-30T09:26:27.915Z,62.64
2018-08-30T09:28:40.147Z,62.44
2018-08-30T09:30:52.357Z,62.21
2018-08-30T09:33:05.071Z,61.81
2018-08-30T09:35:17.249Z,61.15
2018-08-30T09:37:29.525Z,59.97
2018-08-30T09:39:42.531Z,59.66
2018-08-30T09:41:54.753Z,60.39
2018-08-30T09:44:07.075Z,60.17
2018-08-30T09:46:19.262Z,61.13
2018-08-30T09:48:31.463Z,61.12
2018-08-30T09:50:43.714Z,61.38
2018-08-30T09:52:55.914Z,62.22
2018-08-30T09:55:08.155Z,62.51
2018-08-30T09:57:20.691Z,63.67
2018-08-30T09:59:32.636Z,63.98
2018-08-30T10:01:50.077Z,64.08
2018-08-30T10:04:02.352Z,63.48
2018-08-30T10:06:14.584Z,63.50
2018-08-30T10:08:26.860Z,62.61
2018-08-30T10:10:39.067Z,62.57
2018-08-30T10:12:51.258Z,62.59
2018-08-30T10:15:03.543Z,62.18
2018-08-30T10:17:15.788Z,61.56
2018-08-30T10:19:27.998Z,61.04
2018-08-30T10:21:40.315Z,60.77
2018-08-30T10:23:52.590Z,61.00
2018-08-30T10:26:05.295Z,62.15
2018-08-30T10:28:17.521Z,61.41
2018-08-30T10:30:29.742Z,61.64
2018-08-30T10:32:41.987Z,57.87
2018-08-30T10:34:54.235Z,57.77
2018-08-30T10:37:06.577Z,56.66
2018-08-30T10:39:18.671Z,57.80
2018-08-30T10:41:30.911Z,56.90
2018-08-30T10:43:43.111Z,57.66
2018-08-30T10:45:55.315Z,55.85
2018-08-30T10:48:07.543Z,55.31
2018-08-30T10:50:21.924Z,56.09
2018-08-30T10:52:34.155Z,54.49
2018-08-30T10:54:46.424Z,55.17
2018-08-30T10:56:58.599Z,54.92
2018-08-30T10:59:10.796Z,54.96
2018-08-30T11:01:23.065Z,53.73
2018-08-30T11:03:35.388Z,52.49
2018-08-30T11:05:47.677Z,52.57
2018-08-30T11:08:00.098Z,53.47
2018-08-30T11:10:12.408Z,51.86
2018-08-30T11:12:24.635Z,51.71
2018-08-30T11:14:36.842Z,53.84
2018-08-30T11:16:49.074Z,54.45
2018-08-30T11:19:01.249Z,52.95
2018-08-30T11:21:13.500Z,52.73
2018-08-30T11:23:25.807Z,54.01
2018-08-30T11:25:38.010Z,54.85
2018-08-30T11:27:50.265Z,56.04
2018-08-30T11:30:02.498Z,54.37
2018-08-30T11:32:14.850Z,54.55
2018-08-30T11:34:27.086Z,54.16
2018-08-30T11:36:39.302Z,53.54
2018-08-30T11:38:51.502Z,53.26
2018-08-30T11:41:03.695Z,53.52
2018-08-30T11:43:16.013Z,51.14
2018-08-30T11:45:28.175Z,50.61
2018-08-30T11:47:40.403Z,50.46
2018-08-30T11:49:52.693Z,50.38
2018-08-30T11:52:05.076Z,50.82
2018-08-30T11:54:17.264Z,51.86
2018-08-30T11:56:29.423Z,51.93
2018-08-30T11:58:41.695Z,52.96
2018-08-30T12:00:53.945Z,50.78
2018-08-30T12:03:06.173Z,49.27
2018-08-30T12:05:18.486Z,49.99
2018-08-30T12:07:30.717Z,49.76
2018-08-30T12:09:42.906Z,49.31
2018-08-30T12:11:55.183Z,50.57
2018-08-30T12:14:07.402Z,49.25
2018-08-30T12:16:19.702Z,47.96
2018-08-30T12:18:31.945Z,49.26
2018-08-30T12:20:44.279Z,47.62
2018-08-30T12:22:56.406Z,49.26
2018-08-30T12:25:08.646Z,49.47
2018-08-30T12:27:20.930Z,50.87
2018-08-30T12:29:33.173Z,49.66
2018-08-30T12:31:45.545Z,49.51
2018-08-30T12:33:57.861Z,50.13
2018-08-30T12:36:10.075Z,47.76
2018-08-30T12:38:22.313Z,47.27
2018-08-30T12:40:34.560Z,48.36
2018-08-30T12:42:46.712Z,47.81
2018-08-30T12:44:59.287Z,47.72
2018-08-30T12:47:11.502Z,47.23
2018-08-30T12:49:23.798Z,47.19
2018-08-30T12:51:36.184Z,46.98
2018-08-30T12:53:48.318Z,47.64
2018-08-30T12:56:00.566Z,47.41
2018-08-30T12:58:12.811Z,48.31
2018-08-30T13:00:25.100Z,47.82
2018-08-30T13:02:37.330Z,46.39
2018-08-30T13:04:49.823Z,47.78
2018-08-30T13:07:01.856Z,46.40
2018-08-30T13:09:15.565Z,46.11
2018-08-30T13:11:27.610Z,46.86
2018-08-30T13:13:39.945Z,46.96
2018-08-30T13:15:52.053Z,46.79
2018-08-30T13:18:04.192Z,46.51
2018-08-30T13:20:16.445Z,45.70
2018-08-30T13:22:28.819Z,46.39
2018-08-30T13:24:41.118Z,45.84
2018-08-30T13:26:53.273Z,46.01
2018-08-30T13:29:05.587Z,45.22
2018-08-30T13:31:17.778Z,47.73
2018-08-30T13:33:29.959Z,46.80
2018-08-30T13:35:42.385Z,46.76
2018-08-30T13:37:54.711Z,45.07
2018-08-30T13:40:06.805Z,45.76
2018-08-30T13:42:19.196Z,45.90
2018-08-30T13:44:31.291Z,45.59
2018-08-30T13:46:43.580Z,45.76
2018-08-30T13:48:55.622Z,46.07
2018-08-30T13:51:07.870Z,44.87
2018-08-30T13:53:20.352Z,45.85
2018-08-30T13:55:32.354Z,45.10
2018-08-30T13:57:44.925Z,45.00
2018-08-30T13:59:57.211Z,45.71
2018-08-30T14:02:09.024Z,44.69
2018-08-30T14:04:21.381Z,46.22
2018-08-30T14:06:33.492Z,44.96
2018-08-30T14:08:45.870Z,45.93
2018-08-30T14:10:58.039Z,45.08
2018-08-30T14:13:10.300Z,44.52
2018-08-30T14:15:22.783Z,45.32
2018-08-30T14:17:34.425Z,45.05
2018-08-30T14:19:46.741Z,44.88
2018-08-30T14:21:59.007Z,45.35
2018-08-30T14:24:11.402Z,46.10
2018-08-30T14:26:23.499Z,45.06
2018-08-30T14:28:35.633Z,45.97
2018-08-30T14:30:47.822Z,45.98
2018-08-30T14:33:00.037Z,45.19
2018-08-30T14:35:12.277Z,44.50
2018-08-30T14:37:24.525Z,45.74
2018-08-30T14:39:36.736Z,45.49
2018-08-30T14:41:49.081Z,45.43
2018-08-30T14:44:01.208Z,46.30
2018-08-30T14:46:13.418Z,46.32
2018-08-30T14:48:25.630Z,46.87
2018-08-30T14:50:37.856Z,46.24
2018-08-30T14:52:50.144Z,44.71
2018-08-30T14:55:02.307Z,45.88
2018-08-30T14:57:14.589Z,46.75
2018-08-30T14:59:26.804Z,46.43
2018-08-30T15:01:39.017Z,47.23
2018-08-30T15:03:51.226Z,47.51
2018-08-30T15:06:03.553Z,45.60
2018-08-30T15:08:15.695Z,46.75
2018-08-30T15:10:27.939Z,46.13
2018-08-30T15:12:40.155Z,47.50
2018-08-30T15:14:52.361Z,46.28
2018-08-30T15:17:04.646Z,46.71
2018-08-30T15:19:16.840Z,45.54
2018-08-30T15:21:29.113Z,46.43
2018-08-30T15:23:41.368Z,48.08
2018-08-30T15:25:53.618Z,46.37
2018-08-30T15:28:06.109Z,45.16
2018-08-30T15:30:18.380Z,45.96
2018-08-30T15:32:30.512Z,45.69
2018-08-30T15:34:42.750Z,46.15
2018-08-30T15:36:54.924Z,47.25
2018-08-30T15:39:08.014Z,48.21
2018-08-30T15:41:20.257Z,46.17
2018-08-30T15:43:32.572Z,45.94
2018-08-30T15:45:44.700Z,45.47
2018-08-30T15:47:56.951Z,45.28
2018-08-30T15:50:09.178Z,46.82
2018-08-30T15:52:21.388Z,45.84
2018-08-30T15:54:33.642Z,45.67
2018-08-30T15:56:45.853Z,45.31
2018-08-30T15:58:58.108Z,45.56
2018-08-30T16:01:10.394Z,46.43
2018-08-30T16:03:22.598Z,47.28
2018-08-30T16:05:34.851Z,46.44
2018-08-30T16:07:47.106Z,45.68
2018-08-30T16:09:59.435Z,45.65
2018-08-30T16:12:11.551Z,45.87
2018-08-30T16:14:23.796Z,46.85
2018-08-30T16:16:36.006Z,46.61
2018-08-30T16:18:48.248Z,47.14
2018-08-30T16:21:00.735Z,46.78
2018-08-30T16:23:25.576Z,47.01
2018-08-30T16:25:37.796Z,47.81
2018-08-30T16:27:50.059Z,47.82
2018-08-30T16:30:02.327Z,46.96
2018-08-30T16:32:14.598Z,45.36
2018-08-30T16:34:26.854Z,46.07
2018-08-30T16:36:39.095Z,45.85
2018-08-30T16:38:51.302Z,46.29
2018-08-30T16:41:03.579Z,47.26
2018-08-30T16:43:15.842Z,49.03
2018-08-30T16:45:28.110Z,49.97
2018-08-30T16:47:40.378Z,50.59
2018-08-30T16:49:52.594Z,51.67
2018-08-30T16:52:04.854Z,52.90
2018-08-30T16:54:17.055Z,52.47
2018-08-30T16:56:29.268Z,53.42
2018-08-30T16:58:41.506Z,54.84
2018-08-30T17:00:53.811Z,54.28
2018-08-30T17:03:06.411Z,54.42
2018-08-30T17:05:18.657Z,56.25
2018-08-30T17:07:30.970Z,55.35
2018-08-30T17:09:43.204Z,55.97
2018-08-30T17:11:55.531Z,56.41
2018-08-30T17:14:07.805Z,57.17
2018-08-30T17:16:20.134Z,56.37
2018-08-30T17:18:32.422Z,57.27
2018-08-30T17:20:49.499Z,56.94
2018-08-30T17:23:01.723Z,56.66
2018-08-30T17:25:14.023Z,57.70
2018-08-30T17:27:26.228Z,57.55
2018-08-30T17:29:38.472Z,57.82
2018-08-30T17:31:50.798Z,56.94
2018-08-30T17:34:03.061Z,57.71
2018-08-30T17:36:15.314Z,57.84
2018-08-30T17:38:27.573Z,57.25
2018-08-30T17:40:39.845Z,57.73
2018-08-30T17:42:52.128Z,57.36
2018-08-30T17:45:04.581Z,58.40
2018-08-30T17:47:16.855Z,58.20
2018-08-30T17:49:29.107Z,58.51
2018-08-30T17:51:41.446Z,57.77
2018-08-30T17:53:53.639Z,58.10
2018-08-30T17:56:06.076Z,58.93
2018-08-30T17:58:18.314Z,58.84
2018-08-30T18:00:30.583Z,58.25
2018-08-30T18:02:43.954Z,58.54
2018-08-30T18:04:56.243Z,58.15
2018-08-30T18:07:08.615Z,58.55
2018-08-30T18:09:20.794Z,57.71
2018-08-30T18:11:33.095Z,59.02
2018-08-30T18:13:45.305Z,58.79
2018-08-30T18:15:57.581Z,58.51
2018-08-30T18:18:09.906Z,58.74
2018-08-30T18:20:22.160Z,58.75
2018-08-30T18:22:34.410Z,58.73
2018-08-30T18:24:46.662Z,58.78
2018-08-30T18:26:58.951Z,59.65
2018-08-30T18:29:11.413Z,59.94
2018-08-30T18:31:23.698Z,59.28
2018-08-30T18:33:35.874Z,60.35
2018-08-30T18:35:48.123Z,59.97
2018-08-30T18:38:00.416Z,60.24
2018-08-30T18:40:12.689Z,59.38
2018-08-30T18:42:25.012Z,59.43
2018-08-30T18:44:37.183Z,59.68
2018-08-30T18:46:49.455Z,59.81
2018-08-30T18:49:01.727Z,60.93
2018-08-30T18:51:13.966Z,60.82
2018-08-30T18:53:26.200Z,60.65
2018-08-30T18:55:38.429Z,60.03
2018-08-30T18:57:50.629Z,60.63
2018-08-30T19:00:02.939Z,60.41
2018-08-30T19:02:15.211Z,60.99
2018-08-30T19:04:27.565Z,61.75
2018-08-30T19:06:39.811Z,61.79
2018-08-30T19:08:52.357Z,61.43
2018-08-30T19:11:04.974Z,62.20
2018-08-30T19:13:17.451Z,61.67
2018-08-30T19:15:35.324Z,61.68
2018-08-30T19:17:53.277Z,62.28
2018-08-30T19:20:05.755Z,61.54
2018-08-30T19:22:18.354Z,61.20
2018-08-30T19:24:36.236Z,62.11
2018-08-30T19:26:48.792Z,61.77
2018-08-30T19:29:01.083Z,62.06
2018-08-30T19:31:13.572Z,61.54
2018-08-30T19:33:25.907Z,61.47
2018-08-30T19:35:43.854Z,62.51
2018-08-30T19:37:56.244Z,62.32
2018-08-30T19:40:13.128Z,61.50
2018-08-30T19:42:25.483Z,61.98
2018-08-30T19:44:37.744Z,62.59
2018-08-30T19:46:50.018Z,62.84
2018-08-30T19:49:02.437Z,62.57
2018-08-30T19:51:14.684Z,62.68
2018-08-30T19:53:26.931Z,62.08
2018-08-30T19:55:39.201Z,62.94
2018-08-30T19:57:51.450Z,62.76
2018-08-30T20:00:03.828Z,63.26
2018-08-30T20:02:16.114Z,63.27
2018-08-30T20:04:28.403Z,62.64
2018-08-30T20:06:40.655Z,63.31
2018-08-30T20:08:52.903Z,62.53
2018-08-30T20:11:05.354Z,63.84
2018-08-30T20:13:17.747Z,63.38
2018-08-30T20:15:29.921Z,63.55
2018-08-30T20:17:42.157Z,64.12
2018-08-30T20:19:54.411Z,63.33
2018-08-30T20:22:08.804Z,63.25
2018-08-30T20:24:21.010Z,63.58
2018-08-30T20:26:33.273Z,64.14
2018-08-30T20:28:45.483Z,64.55
2018-08-30T20:30:57.745Z,63.74
2018-08-30T20:33:09.991Z,64.11
2018-08-30T20:35:22.260Z,64.56
2018-08-30T20:37:35.353Z,63.78
2018-08-30T20:39:47.683Z,64.56
2018-08-30T20:41:59.903Z,63.94
2018-08-30T20:44:12.106Z,63.80
2018-08-30T20:46:24.340Z,64.48
2018-08-30T20:48:36.642Z,64.53
2018-08-30T20:50:48.852Z,64.82
2018-08-30T20:53:01.059Z,64.21
2018-08-30T20:55:13.283Z,64.69
2018-08-30T20:57:25.983Z,64.87
2018-08-30T20:59:38.255Z,65.53
2018-08-30T21:01:50.468Z,64.78
2018-08-30T21:04:02.695Z,65.23
2018-08-30T21:06:14.934Z,64.45
2018-08-30T21:08:27.208Z,65.40
2018-08-30T21:10:39.510Z,64.69
2018-08-30T21:12:51.722Z,65.58
2018-08-30T21:15:03.964Z,64.72
2018-08-30T21:17:16.180Z,65.85
2018-08-30T21:19:28.430Z,65.32
2018-08-30T21:21:40.616Z,66.01
2018-08-30T21:23:53.074Z,65.63
2018-08-30T21:26:05.591Z,66.34
2018-08-30T21:28:17.806Z,66.33
2018-08-30T21:30:30.046Z,66.06
2018-08-30T21:32:42.306Z,66.81
2018-08-30T21:34:54.511Z,67.28
2018-08-30T21:37:06.743Z,66.81
2018-08-30T21:39:18.931Z,66.89
2018-08-30T21:41:31.164Z,66.86
2018-08-30T21:43:43.378Z,67.78
2018-08-30T21:45:55.697Z,67.40
2018-08-30T21:48:08.006Z,66.78
2018-08-30T21:50:20.294Z,66.95
2018-08-30T21:52:32.466Z,67.67
2018-08-30T21:54:44.727Z,67.56
2018-08-30T21:56:56.922Z,67.77
2018-08-30T21:59:09.134Z,67.82
2018-08-30T22:01:21.403Z,67.40
2018-08-30T22:03:33.614Z,67.24
2018-08-30T22:05:45.871Z,67.30
2018-08-30T22:07:58.130Z,67.58
2018-08-30T22:10:10.323Z,67.86
2018-08-30T22:12:22.578Z,68.01
2018-08-30T22:14:34.771Z,67.64
2018-08-30T22:16:47.023Z,67.23
2018-08-30T22:18:59.255Z,68.12
2018-08-30T22:21:11.415Z,67.71
2018-08-30T22:23:23.655Z,68.16
2018-08-30T22:25:35.861Z,67.70
2018-08-30T22:27:48.082Z,67.46
2018-08-30T22:30:00.291Z,67.76
2018-08-30T22:32:12.522Z,68.17
2018-08-30T22:34:24.713Z,67.90
2018-08-30T22:36:36.905Z,67.57
2018-08-30T22:38:49.121Z,68.78
2018-08-30T22:41:01.426Z,68.32
2018-08-30T22:43:13.652Z,67.80
2018-08-30T22:45:25.816Z,68.90
2018-08-30T22:47:38.027Z,68.22
2018-08-30T22:49:50.202Z,68.13
2018-08-30T22:52:02.403Z,68.19
2018-08-30T22:54:14.600Z,69.02
2018-08-30T22:56:26.785Z,68.26
2018-08-30T22:58:39.011Z,68.37
2018-08-30T23:00:51.166Z,67.96
2018-08-30T23:03:03.410Z,68.22
2018-08-30T23:05:15.623Z,68.86
2018-08-30T23:07:27.814Z,68.39
2018-08-30T23:09:40.003Z,69.05
2018-08-30T23:11:52.212Z,69.25
2018-08-30T23:14:04.474Z,69.45
2018-08-30T23:16:16.654Z,69.46
2018-08-30T23:18:28.840Z,69.44
2018-08-30T23:20:41.055Z,69.20
2018-08-30T23:22:53.257Z,68.49
2018-08-30T23:25:05.632Z,69.12
2018-08-30T23:27:17.808Z,69.80
2018-08-30T23:29:30.030Z,68.72
2018-08-30T23:31:42.217Z,68.70
2018-08-30T23:33:54.446Z,70.21
2018-08-30T23:36:06.675Z,69.82
2018-08-30T23:38:18.862Z,69.99
2018-08-30T23:40:31.070Z,70.70
2018-08-30T23:42:43.215Z,69.95
2018-08-30T23:44:55.401Z,70.95
2018-08-30T23:47:07.612Z,70.16
2018-08-30T23:49:19.844Z,69.88
2018-08-30T23:51:32.093Z,70.02
2018-08-30T23:53:44.267Z,69.98
2018-08-30T23:55:56.448Z,69.30
2018-08-30T23:58:20.053Z,69.67
